createdAt,value
2022-08-26T00:02:15.843Z,4.95
2022-08-26T00:05:09.857Z,6.53
2022-08-26T00:08:00.368Z,5.90
2022-08-26T00:10:50.201Z,5.60
2022-08-26T00:13:42.159Z,5.88
2022-08-26T00:16:38.562Z,6.32
2022-08-26T00:19:31.341Z,6.00
2022-08-26T00:22:22.164Z,5.40
2022-08-26T00:25:13.755Z,6.88
2022-08-26T00:28:07.554Z,6.35
2022-08-26T00:31:01.036Z,6.00
2022-08-26T00:33:51.155Z,5.97
2022-08-26T00:36:41.663Z,6.13
2022-08-26T00:39:32.964Z,6.10
2022-08-26T00:42:23.391Z,7.00
2022-08-26T00:45:14.571Z,6.35
2022-08-26T00:48:06.457Z,6.07
2022-08-26T00:51:03.044Z,6.22
2022-08-26T00:53:59.080Z,6.25
2022-08-26T00:57:08.722Z,6.10
2022-08-26T01:00:13.400Z,5.90
2022-08-26T01:03:05.152Z,5.90
2022-08-26T01:05:57.592Z,6.20
2022-08-26T01:08:48.074Z,6.55
2022-08-26T01:11:38.815Z,6.75
2022-08-26T01:14:35.055Z,6.03
2022-08-26T01:17:26.748Z,6.57
2022-08-26T01:20:23.040Z,6.50
2022-08-26T01:23:14.976Z,6.25
2022-08-26T01:26:19.573Z,6.22
2022-08-26T01:29:15.776Z,6.57
2022-08-26T01:32:09.820Z,6.72
2022-08-26T01:35:00.946Z,6.20
2022-08-26T01:37:54.857Z,6.00
2022-08-26T01:40:45.872Z,6.07
2022-08-26T01:43:39.182Z,6.20
2022-08-26T01:46:30.671Z,6.53
2022-08-26T01:49:22.353Z,6.20
2022-08-26T01:52:18.901Z,5.95
2022-08-26T01:55:15.333Z,6.20
2022-08-26T01:58:39.033Z,6.28
2022-08-26T02:01:29.532Z,6.40
2022-08-26T02:04:33.211Z,6.63
2022-08-26T02:07:24.348Z,7.18
2022-08-26T02:10:16.844Z,7.35
2022-08-26T02:13:10.649Z,6.63
2022-08-26T02:16:03.700Z,8.02
2022-08-26T02:21:51.252Z,7.55
2022-08-26T02:24:49.963Z,7.28
2022-08-26T02:27:41.838Z,7.10
2022-08-26T02:30:32.845Z,7.45
2022-08-26T02:33:22.807Z,7.72
2022-08-26T02:36:13.447Z,8.00
2022-08-26T02:39:07.196Z,7.53
2022-08-26T02:41:58.168Z,7.50
2022-08-26T02:44:49.396Z,7.53
2022-08-26T02:47:39.929Z,7.85
2022-08-26T02:50:30.065Z,7.28
2022-08-26T02:53:25.091Z,7.68
2022-08-26T02:56:15.961Z,8.05
2022-08-26T02:59:06.656Z,7.47
2022-08-26T03:01:57.498Z,8.75
2022-08-26T03:04:57.910Z,8.13
2022-08-26T03:10:42.501Z,7.72
2022-08-26T03:13:32.359Z,8.00
2022-08-26T03:16:23.040Z,8.43
2022-08-26T03:19:13.750Z,8.68
2022-08-26T03:22:07.725Z,8.88
2022-08-26T03:24:58.076Z,8.52
2022-08-26T03:27:49.039Z,8.10
2022-08-26T03:30:45.257Z,8.23
2022-08-26T03:33:35.802Z,8.35
2022-08-26T03:36:28.982Z,7.75
2022-08-26T03:39:19.672Z,8.43
2022-08-26T03:42:10.808Z,7.80
2022-08-26T03:45:00.814Z,8.30
2022-08-26T03:47:50.969Z,8.18
2022-08-26T03:50:43.077Z,8.43
2022-08-26T03:53:33.310Z,9.25
2022-08-26T03:56:30.366Z,8.57
2022-08-26T03:59:20.483Z,7.45
2022-08-26T04:02:11.576Z,8.38
2022-08-26T04:05:02.546Z,7.68
2022-08-26T04:07:54.097Z,7.97
2022-08-26T04:10:44.338Z,8.40
2022-08-26T04:13:34.835Z,8.77
2022-08-26T04:16:26.026Z,8.02
2022-08-26T04:19:19.246Z,8.17
2022-08-26T04:22:09.684Z,8.18
2022-08-26T04:24:59.815Z,8.30
2022-08-26T04:27:49.777Z,8.45
2022-08-26T04:30:41.143Z,8.70
2022-08-26T04:33:33.225Z,8.77
2022-08-26T04:36:26.267Z,8.10
2022-08-26T04:39:16.885Z,8.93
2022-08-26T04:42:08.999Z,8.65
2022-08-26T04:44:59.391Z,8.98
2022-08-26T04:47:53.480Z,8.48
2022-08-26T04:53:33.999Z,9.07
2022-08-26T04:56:33.352Z,8.43
2022-08-26T04:59:23.619Z,9.45
2022-08-26T05:02:15.176Z,9.30
2022-08-26T05:05:07.119Z,8.30
2022-08-26T05:07:57.173Z,8.77
2022-08-26T05:10:51.263Z,9.15
2022-08-26T05:13:41.452Z,9.27
2022-08-26T05:16:32.274Z,8.77
2022-08-26T05:19:23.644Z,8.77
2022-08-26T05:22:14.825Z,9.35
2022-08-26T05:25:05.278Z,9.13
2022-08-26T05:27:55.372Z,9.77
2022-08-26T05:30:46.315Z,10.93
2022-08-26T05:33:36.391Z,11.05
2022-08-26T05:36:33.491Z,10.95
2022-08-26T05:39:24.621Z,11.00
2022-08-26T05:42:15.389Z,10.25
2022-08-26T05:45:06.457Z,10.52
2022-08-26T05:47:57.129Z,11.68
2022-08-26T05:50:50.964Z,11.10
2022-08-26T05:53:43.920Z,11.38
2022-08-26T05:56:44.971Z,11.10
2022-08-26T05:59:36.793Z,11.23
2022-08-26T06:02:28.819Z,10.98
2022-08-26T06:05:19.409Z,11.13
2022-08-26T06:08:13.956Z,10.77
2022-08-26T06:11:07.052Z,10.98
2022-08-26T06:14:03.605Z,12.35
2022-08-26T06:16:54.916Z,12.05
2022-08-26T06:19:45.029Z,11.98
2022-08-26T06:23:01.202Z,12.02
2022-08-26T06:25:52.455Z,10.88
2022-08-26T06:28:45.490Z,10.40
2022-08-26T06:31:36.830Z,11.20
2022-08-26T06:34:30.677Z,10.13
2022-08-26T06:40:11.614Z,9.07
2022-08-26T06:43:01.998Z,9.30
2022-08-26T06:45:59.608Z,9.80
2022-08-26T06:48:50.172Z,10.57
2022-08-26T06:51:41.284Z,9.93
2022-08-26T06:54:31.717Z,10.07
2022-08-26T06:57:21.951Z,10.20
2022-08-26T07:00:12.879Z,9.45
2022-08-26T07:03:05.606Z,9.68
2022-08-26T07:06:03.998Z,9.02
2022-08-26T07:09:03.323Z,7.90
2022-08-26T07:11:56.095Z,7.80
2022-08-26T07:14:48.190Z,8.43
2022-08-26T07:17:38.685Z,8.50
2022-08-26T07:20:30.473Z,8.50
2022-08-26T07:23:20.381Z,8.20
2022-08-26T07:26:16.371Z,8.48
2022-08-26T07:29:06.826Z,8.10
2022-08-26T07:31:58.039Z,8.20
2022-08-26T07:34:48.076Z,7.97
2022-08-26T07:37:39.332Z,7.63
2022-08-26T07:40:30.192Z,7.75
2022-08-26T07:43:20.997Z,8.52
2022-08-26T07:46:18.466Z,7.40
2022-08-26T07:49:12.128Z,7.40
2022-08-26T07:52:02.629Z,5.97
2022-08-26T07:54:53.067Z,6.78
2022-08-26T07:57:43.821Z,6.65
2022-08-26T08:00:34.832Z,6.32
2022-08-26T08:03:24.842Z,7.10
2022-08-26T08:06:15.073Z,6.45
2022-08-26T08:09:05.083Z,5.75
2022-08-26T08:11:57.509Z,6.25
2022-08-26T08:14:48.757Z,5.80
2022-08-26T08:17:38.935Z,6.13
2022-08-26T08:20:29.965Z,5.75
2022-08-26T08:23:19.931Z,4.85
2022-08-26T08:26:11.611Z,5.30
2022-08-26T08:29:01.691Z,5.35
2022-08-26T08:31:56.477Z,4.32
2022-08-26T08:34:48.057Z,4.70
2022-08-26T08:37:38.645Z,4.55
2022-08-26T08:40:29.336Z,4.43
2022-08-26T08:43:37.671Z,4.43
2022-08-26T08:46:30.205Z,4.70
2022-08-26T08:49:21.821Z,4.68
2022-08-26T08:52:37.232Z,3.85
2022-08-26T08:55:36.677Z,4.47
2022-08-26T08:58:42.057Z,3.95
2022-08-26T09:01:43.150Z,3.80
2022-08-26T09:04:55.468Z,3.88
2022-08-26T09:11:00.298Z,4.60
2022-08-26T09:13:53.276Z,4.32
2022-08-26T09:16:51.655Z,4.10
2022-08-26T09:19:49.565Z,3.80
2022-08-26T09:22:40.580Z,4.28
2022-08-26T09:25:45.636Z,4.40
2022-08-26T09:28:42.393Z,5.32
2022-08-26T09:31:35.909Z,4.70
2022-08-26T09:34:28.302Z,5.20
2022-08-26T09:37:37.584Z,5.00
2022-08-26T09:40:36.036Z,6.25
2022-08-26T09:43:28.497Z,5.05
2022-08-26T09:46:25.870Z,5.43
2022-08-26T09:49:26.039Z,6.40
2022-08-26T09:52:23.730Z,5.60
2022-08-26T09:55:24.112Z,5.47
2022-08-26T09:58:31.368Z,5.35
2022-08-26T10:01:23.398Z,5.57
2022-08-26T10:04:26.696Z,5.75
2022-08-26T10:07:41.691Z,5.57
2022-08-26T10:10:36.935Z,6.43
2022-08-26T10:13:37.498Z,6.60
2022-08-26T10:17:03.486Z,6.28
2022-08-26T10:20:22.918Z,6.35
2022-08-26T10:23:18.611Z,6.55
2022-08-26T10:26:46.463Z,6.38
2022-08-26T10:29:46.800Z,6.40
2022-08-26T10:32:41.763Z,6.72
2022-08-26T10:35:35.419Z,6.25
2022-08-26T10:38:38.661Z,6.20
2022-08-26T10:41:36.228Z,6.07
2022-08-26T10:44:28.772Z,5.85
2022-08-26T10:47:25.842Z,6.07
2022-08-26T10:50:18.850Z,6.10
2022-08-26T10:53:52.093Z,5.90
2022-08-26T10:57:02.536Z,5.70
2022-08-26T11:00:43.975Z,5.95
2022-08-26T11:03:50.430Z,6.45
2022-08-26T11:06:40.929Z,6.10
2022-08-26T11:09:52.659Z,5.80
2022-08-26T11:12:42.713Z,5.28
2022-08-26T11:15:36.795Z,5.55
2022-08-26T11:22:01.105Z,6.60
2022-08-26T11:24:55.073Z,6.38
2022-08-26T11:30:40.670Z,4.88
2022-08-26T11:33:52.236Z,4.75
2022-08-26T11:36:47.683Z,5.43
2022-08-26T11:39:55.012Z,5.45
2022-08-26T11:42:51.727Z,6.03
2022-08-26T11:45:45.289Z,6.50
2022-08-26T11:48:40.985Z,7.32
2022-08-26T11:51:32.896Z,6.35
2022-08-26T11:54:35.353Z,6.15
2022-08-26T11:57:26.611Z,6.32
2022-08-26T12:00:54.424Z,6.35
2022-08-26T12:03:50.663Z,5.25
2022-08-26T12:06:47.735Z,6.20
2022-08-26T12:09:51.592Z,5.95
2022-08-26T12:12:42.474Z,6.43
2022-08-26T12:15:34.241Z,6.47
2022-08-26T12:18:30.573Z,6.95
2022-08-26T12:21:24.427Z,6.13
2022-08-26T12:24:18.701Z,5.78
2022-08-26T12:27:25.455Z,6.40
2022-08-26T12:30:20.017Z,5.00
2022-08-26T12:33:22.901Z,5.28
2022-08-26T12:36:18.193Z,5.50
2022-08-26T12:39:16.220Z,6.30
2022-08-26T12:42:42.209Z,6.50
2022-08-26T12:45:35.577Z,5.93
2022-08-26T12:48:32.050Z,6.43
2022-08-26T12:51:26.275Z,5.70
2022-08-26T12:57:13.262Z,6.40
2022-08-26T13:00:22.733Z,5.90
2022-08-26T13:03:35.290Z,5.88
2022-08-26T13:06:32.539Z,6.00
2022-08-26T13:09:22.714Z,5.93
2022-08-26T13:12:23.572Z,6.22
2022-08-26T13:15:14.002Z,5.85
2022-08-26T13:18:04.534Z,7.40
2022-08-26T13:20:54.455Z,5.93
2022-08-26T13:23:44.649Z,5.70
2022-08-26T13:26:35.668Z,6.45
2022-08-26T13:29:26.301Z,6.28
2022-08-26T13:32:18.017Z,5.72
2022-08-26T13:35:08.368Z,5.68
2022-08-26T13:37:58.874Z,6.50
2022-08-26T13:40:49.462Z,6.63
2022-08-26T13:43:39.941Z,5.93
2022-08-26T13:46:30.322Z,5.75
2022-08-26T13:49:21.001Z,6.18
2022-08-26T13:52:11.595Z,6.38
2022-08-26T13:55:02.203Z,6.47
2022-08-26T13:57:52.373Z,5.63
2022-08-26T14:00:42.340Z,6.00
2022-08-26T14:03:32.682Z,5.88
2022-08-26T14:06:23.061Z,6.60
2022-08-26T14:09:13.698Z,6.10
2022-08-26T14:12:07.121Z,6.45
2022-08-26T14:14:58.407Z,6.00
2022-08-26T14:18:08.755Z,6.13
2022-08-26T14:20:59.495Z,6.28
2022-08-26T14:23:49.797Z,7.00
2022-08-26T14:26:40.723Z,6.10
2022-08-26T14:29:30.922Z,6.47
2022-08-26T14:32:27.177Z,6.30
2022-08-26T14:35:20.881Z,6.50
2022-08-26T14:38:12.150Z,5.93
2022-08-26T14:41:03.201Z,6.25
2022-08-26T14:44:14.826Z,6.43
2022-08-26T14:47:06.907Z,6.47
2022-08-26T14:49:57.121Z,5.90
2022-08-26T14:53:06.138Z,6.35
2022-08-26T14:55:56.650Z,6.20
2022-08-26T14:58:46.874Z,5.97
2022-08-26T15:01:37.697Z,6.35
2022-08-26T15:04:28.468Z,5.97
2022-08-26T15:07:18.703Z,6.40
2022-08-26T15:10:11.730Z,5.72
2022-08-26T15:13:02.862Z,5.95
2022-08-26T15:15:53.051Z,6.18
2022-08-26T15:18:43.738Z,5.60
2022-08-26T15:21:35.706Z,4.93
2022-08-26T15:24:28.670Z,4.93
2022-08-26T15:27:18.994Z,4.63
2022-08-26T15:30:11.399Z,4.80
2022-08-26T15:33:02.096Z,4.50
2022-08-26T15:35:52.343Z,4.15
2022-08-26T15:38:42.693Z,4.50
2022-08-26T15:41:34.789Z,4.32
2022-08-26T15:44:26.905Z,4.18
2022-08-26T15:47:17.250Z,4.53
2022-08-26T15:50:08.915Z,4.20
2022-08-26T15:53:01.358Z,4.32
2022-08-26T15:55:55.202Z,4.40
2022-08-26T15:58:46.892Z,4.20
2022-08-26T16:01:38.237Z,4.20
2022-08-26T16:04:29.531Z,4.50
2022-08-26T16:07:19.925Z,5.00
2022-08-26T16:10:10.815Z,5.40
2022-08-26T16:13:00.647Z,4.47
2022-08-26T16:15:50.934Z,4.68
2022-08-26T16:18:42.207Z,4.65
2022-08-26T16:21:32.622Z,5.15
2022-08-26T16:24:27.164Z,4.70
2022-08-26T16:27:20.733Z,5.15
2022-08-26T16:30:26.450Z,4.60
2022-08-26T16:33:24.978Z,4.20
2022-08-26T16:36:20.627Z,4.45
2022-08-26T16:39:11.215Z,3.90
2022-08-26T16:42:01.494Z,4.75
2022-08-26T16:44:51.840Z,4.78
2022-08-26T16:47:42.048Z,5.13
2022-08-26T16:50:33.202Z,5.90
2022-08-26T16:53:23.704Z,4.90
2022-08-26T16:56:15.613Z,4.45
2022-08-26T16:59:08.028Z,4.38
2022-08-26T17:01:58.269Z,4.93
2022-08-26T17:04:49.292Z,4.75
2022-08-26T17:07:40.678Z,4.30
2022-08-26T17:10:31.891Z,3.45
2022-08-26T17:13:25.949Z,2.33
2022-08-26T17:16:27.615Z,2.10
2022-08-26T17:19:19.178Z,1.83
2022-08-26T17:22:09.710Z,2.35
2022-08-26T17:25:00.902Z,2.10
2022-08-26T17:27:51.267Z,2.47
2022-08-26T17:30:42.065Z,2.10
2022-08-26T17:33:32.856Z,2.30
2022-08-26T17:36:28.111Z,2.40
2022-08-26T17:39:18.743Z,2.05
2022-08-26T17:42:11.652Z,2.10
2022-08-26T17:45:02.096Z,3.07
2022-08-26T17:47:55.795Z,3.58
2022-08-26T17:50:49.331Z,3.88
2022-08-26T17:53:41.325Z,4.82
2022-08-26T17:56:31.619Z,4.70
2022-08-26T17:59:21.829Z,4.80
2022-08-26T18:02:12.108Z,5.60
2022-08-26T18:05:02.237Z,4.68
2022-08-26T18:07:52.963Z,4.65
2022-08-26T18:10:44.690Z,6.28
2022-08-26T18:13:34.995Z,6.07
2022-08-26T18:16:25.199Z,6.20
2022-08-26T18:19:15.642Z,5.57
2022-08-26T18:22:06.817Z,5.72
2022-08-26T18:24:58.803Z,6.25
2022-08-26T18:27:49.511Z,6.78
2022-08-26T18:30:42.349Z,6.35
2022-08-26T18:33:32.779Z,6.47
2022-08-26T18:36:27.328Z,6.65
2022-08-26T18:39:23.453Z,7.40
2022-08-26T18:42:14.182Z,7.78
2022-08-26T18:45:08.992Z,8.13
2022-08-26T18:47:59.460Z,6.82
2022-08-26T18:50:52.145Z,7.32
2022-08-26T18:53:45.680Z,8.50
2022-08-26T18:56:37.241Z,6.97
2022-08-26T18:59:30.608Z,6.10
2022-08-26T19:02:24.542Z,5.95
2022-08-26T19:05:15.748Z,7.47
2022-08-26T19:08:07.504Z,6.93
2022-08-26T19:10:59.377Z,7.40
2022-08-26T19:13:50.355Z,7.00
2022-08-26T19:16:47.206Z,6.97
2022-08-26T19:19:38.286Z,7.18
2022-08-26T19:22:28.583Z,7.45
2022-08-26T19:25:19.135Z,6.55
2022-08-26T19:28:10.093Z,7.28
2022-08-26T19:31:01.440Z,7.00
2022-08-26T19:33:53.517Z,7.72
2022-08-26T19:36:46.827Z,7.57
2022-08-26T19:39:44.728Z,7.60
2022-08-26T19:42:34.839Z,8.57
2022-08-26T19:45:25.597Z,7.88
2022-08-26T19:48:16.191Z,8.05
2022-08-26T19:51:07.230Z,7.78
2022-08-26T19:53:59.941Z,6.63
2022-08-26T19:56:50.514Z,6.78
2022-08-26T19:59:41.138Z,6.35
2022-08-26T20:02:31.680Z,6.80
2022-08-26T20:05:26.308Z,7.00
2022-08-26T20:08:22.048Z,8.05
2022-08-26T20:11:16.578Z,8.15
2022-08-26T20:14:06.402Z,9.60
2022-08-26T20:16:56.742Z,9.60
2022-08-26T20:20:05.607Z,8.70
2022-08-26T20:23:04.422Z,9.75
2022-08-26T20:25:56.424Z,8.68
2022-08-26T20:28:46.453Z,9.60
2022-08-26T20:31:38.724Z,9.65
2022-08-26T20:34:29.098Z,8.90
2022-08-26T20:37:21.653Z,9.45
2022-08-26T20:40:13.865Z,10.10
2022-08-26T20:43:05.981Z,10.40
2022-08-26T20:45:56.125Z,9.82
2022-08-26T20:48:47.621Z,9.45
2022-08-26T20:51:37.878Z,8.68
2022-08-26T20:54:29.163Z,8.90
2022-08-26T20:57:20.070Z,9.98
2022-08-26T21:00:13.430Z,9.48
2022-08-26T21:03:04.265Z,9.55
2022-08-26T21:05:54.975Z,8.98
2022-08-26T21:08:46.183Z,8.48
2022-08-26T21:11:37.900Z,10.40
2022-08-26T21:14:28.323Z,11.88
2022-08-26T21:17:19.951Z,9.60
2022-08-26T21:20:10.242Z,9.38
2022-08-26T21:23:00.571Z,9.38
2022-08-26T21:25:51.064Z,10.07
2022-08-26T21:28:43.239Z,12.15
2022-08-26T21:31:34.937Z,11.15
2022-08-26T21:34:25.171Z,11.23
2022-08-26T21:37:16.959Z,11.73
2022-08-26T21:40:08.288Z,11.35
2022-08-26T21:42:58.762Z,10.52
2022-08-26T21:45:49.308Z,10.88
2022-08-26T21:48:42.895Z,10.02
2022-08-26T21:51:36.159Z,10.48
2022-08-26T21:54:26.438Z,10.60
2022-08-26T21:57:17.509Z,10.52
2022-08-26T22:00:09.667Z,11.05
2022-08-26T22:03:00.710Z,10.63
2022-08-26T22:05:51.241Z,10.55
2022-08-26T22:08:41.538Z,10.88
2022-08-26T22:11:32.757Z,11.55
2022-08-26T22:14:30.453Z,11.68
2022-08-26T22:17:23.957Z,12.35
2022-08-26T22:20:16.600Z,11.60
2022-08-26T22:23:07.571Z,12.65
2022-08-26T22:25:58.404Z,11.68
2022-08-26T22:28:48.634Z,12.65
2022-08-26T22:31:38.961Z,13.07
2022-08-26T22:34:29.121Z,13.65
2022-08-26T22:37:19.227Z,14.00
2022-08-26T22:40:11.213Z,14.40
2022-08-26T22:43:02.525Z,14.02
2022-08-26T22:45:53.697Z,14.30
2022-08-26T22:48:44.059Z,14.20
2022-08-26T22:51:35.212Z,13.73
2022-08-26T22:54:25.351Z,13.20
2022-08-26T22:57:15.805Z,13.65
2022-08-26T23:00:07.049Z,14.68
2022-08-26T23:03:02.183Z,14.30
2022-08-26T23:05:52.807Z,14.02
2022-08-26T23:08:46.232Z,14.68
2022-08-26T23:11:38.508Z,14.95
2022-08-26T23:14:32.368Z,13.73
2022-08-26T23:17:23.839Z,12.48
2022-08-26T23:20:18.027Z,14.25
2022-08-26T23:23:09.529Z,15.30
2022-08-26T23:26:03.255Z,13.75
2022-08-26T23:28:55.865Z,15.95
2022-08-26T23:31:46.124Z,16.15
2022-08-26T23:34:54.778Z,16.95
2022-08-26T23:37:46.139Z,17.50
2022-08-26T23:40:38.823Z,18.02
2022-08-26T23:43:29.439Z,18.90
2022-08-26T23:46:20.573Z,19.08
2022-08-26T23:49:10.820Z,20.65
2022-08-26T23:52:19.558Z,20.33
2022-08-26T23:55:10.680Z,21.10
2022-08-26T23:58:01.388Z,20.98
